Hovedside
METAR-TAF:

METAR-TAF

Lufthavner :

Gran Canaria internasjonale lufthavn

Gran Canaria, Spania

breddegrad: 27-56N, lengdegrad: 015-23W, høyde over havet: 23 m

Gjeldene værobservasjon

Denne rapporten ble laget for 44 minutter siden, klokken 08:00 UTC
Vind 22 kt fra Nord
Temperatur 21°C
Luftfuktighet 69%
Trykk 1018 hPa
Sikt 10 km eller mer
Få skyer i en høyde av 2500 ft
Spredte skyer i en høyde av 3000 ft

METAR: GCLP 130800Z 01022KT 9999 FEW025 SCT030 21/15 Q1018 NOSIG

Tid: 08:44 (08:44 UTC)

Varsel

Denne rapporten ble laget for 44 minutter siden, klokken 08:00 UTC
Varsel gyldig fra 13. klokken 09 UTC til 14. klokken 09 UTC
Vind 25 kt fra Nord
Sikt 10 km eller mer
Spredte skyer i en høyde av 2500 ft
Midlertidig
fra 13. klokken 09 UTC til 13. klokken 21 UTC
Vind 26 kt fra Nord med vindkast opp mot 36 kt

TAF: GCLP 130800Z 1309/1409 01025KT 9999 SCT025 TX24/1314Z TN20/1406Z TEMPO 1309/1321 01026G36KT

Værobservasjoner og værvarsel for over 4000 flyplasser (METAR- og TAF-rapporter).

Tilgjengelige stasjoner er representert av de røde og gule prikkene på kartet.

Hold musepekeren over prikken for å se navnet på stasjonen.

Klikk så for å se værobservasjoner og -varsler.

For å forandre kartet kan du klikke på den grønne knappen med svart kryss for å zoome inn, på den grønne knappen med strek for å zoome ut, eller på de grønne pilene for å se tilstøtende kart.


METAR-TAF: